sensor_id;sensor_type;location;lat;lon;timestamp;temperature;humidity
11446;DHT22;5779;64.178;15.432;2023-12-04T00:02:05;-15.30;99.90
11446;DHT22;5779;64.178;15.432;2023-12-04T00:04:52;-15.40;99.90
11446;DHT22;5779;64.178;15.432;2023-12-04T00:07:38;-15.40;99.90
11446;DHT22;5779;64.178;15.432;2023-12-04T00:10:25;-15.40;99.90
11446;DHT22;5779;64.178;15.432;2023-12-04T00:13:13;-15.30;99.90
11446;DHT22;5779;64.178;15.432;2023-12-04T00:16:00;-15.30;99.90
11446;DHT22;5779;64.178;15.432;2023-12-04T00:18:46;-15.30;99.90
11446;DHT22;5779;64.178;15.432;2023-12-04T00:21:33;-15.40;99.90
11446;DHT22;5779;64.178;15.432;2023-12-04T00:24:20;-15.40;99.90
11446;DHT22;5779;64.178;15.432;2023-12-04T00:27:07;-15.40;99.90
11446;DHT22;5779;64.178;15.432;2023-12-04T00:29:55;-15.60;99.90
11446;DHT22;5779;64.178;15.432;2023-12-04T00:32:42;-15.60;99.90
11446;DHT22;5779;64.178;15.432;2023-12-04T00:35:29;-15.60;99.90
11446;DHT22;5779;64.178;15.432;2023-12-04T00:38:15;-15.80;99.90
11446;DHT22;5779;64.178;15.432;2023-12-04T00:41:03;-16.00;99.90
11446;DHT22;5779;64.178;15.432;2023-12-04T00:43:49;-15.90;99.90
11446;DHT22;5779;64.178;15.432;2023-12-04T00:46:38;-16.00;99.90
11446;DHT22;5779;64.178;15.432;2023-12-04T00:49:25;-15.90;99.90
11446;DHT22;5779;64.178;15.432;2023-12-04T00:52:11;-15.80;99.90
11446;DHT22;5779;64.178;15.432;2023-12-04T00:54:58;-15.70;99.90
11446;DHT22;5779;64.178;15.432;2023-12-04T00:57:45;-15.70;99.90
11446;DHT22;5779;64.178;15.432;2023-12-04T01:00:32;-16.00;99.90
11446;DHT22;5779;64.178;15.432;2023-12-04T01:03:20;-15.90;99.90
11446;DHT22;5779;64.178;15.432;2023-12-04T01:06:07;-16.10;99.90
11446;DHT22;5779;64.178;15.432;2023-12-04T01:08:54;-16.00;99.90
11446;DHT22;5779;64.178;15.432;2023-12-04T01:11:41;-16.10;99.90
11446;DHT22;5779;64.178;15.432;2023-12-04T01:14:27;-16.10;99.90
11446;DHT22;5779;64.178;15.432;2023-12-04T01:17:14;-16.20;99.90
11446;DHT22;5779;64.178;15.432;2023-12-04T01:20:03;-16.30;99.90
11446;DHT22;5779;64.178;15.432;2023-12-04T01:22:50;-16.30;99.90
11446;DHT22;5779;64.178;15.432;2023-12-04T01:25:36;-16.40;99.90
11446;DHT22;5779;64.178;15.432;2023-12-04T01:28:23;-16.30;99.90
11446;DHT22;5779;64.178;15.432;2023-12-04T01:31:10;-16.20;99.90
11446;DHT22;5779;64.178;15.432;2023-12-04T01:33:56;-16.10;99.90
11446;DHT22;5779;64.178;15.432;2023-12-04T01:36:45;-16.00;99.90
11446;DHT22;5779;64.178;15.432;2023-12-04T01:39:31;-15.90;99.90
11446;DHT22;5779;64.178;15.432;2023-12-04T01:42:18;-15.90;99.90
11446;DHT22;5779;64.178;15.432;2023-12-04T01:45:06;-15.80;99.90
11446;DHT22;5779;64.178;15.432;2023-12-04T01:47:54;-15.80;99.90
11446;DHT22;5779;64.178;15.432;2023-12-04T01:50:40;-15.70;99.90
11446;DHT22;5779;64.178;15.432;2023-12-04T01:53:29;-15.80;99.90
11446;DHT22;5779;64.178;15.432;2023-12-04T01:56:16;-15.90;99.90
11446;DHT22;5779;64.178;15.432;2023-12-04T01:59:04;-16.00;99.90
11446;DHT22;5779;64.178;15.432;2023-12-04T02:01:52;-16.00;99.90
11446;DHT22;5779;64.178;15.432;2023-12-04T02:04:40;-16.00;99.90
11446;DHT22;5779;64.178;15.432;2023-12-04T02:07:27;-16.00;99.90
11446;DHT22;5779;64.178;15.432;2023-12-04T02:10:16;-16.10;99.90
11446;DHT22;5779;64.178;15.432;2023-12-04T02:13:03;-15.90;99.90
11446;DHT22;5779;64.178;15.432;2023-12-04T02:15:51;-15.90;99.90
11446;DHT22;5779;64.178;15.432;2023-12-04T02:18:40;-15.80;99.90
11446;DHT22;5779;64.178;15.432;2023-12-04T02:21:26;-15.80;99.90
11446;DHT22;5779;64.178;15.432;2023-12-04T02:24:15;-15.90;99.90
11446;DHT22;5779;64.178;15.432;2023-12-04T02:27:06;-16.10;99.90
11446;DHT22;5779;64.178;15.432;2023-12-04T02:29:59;-16.00;99.90
11446;DHT22;5779;64.178;15.432;2023-12-04T02:32:48;-15.90;99.90
11446;DHT22;5779;64.178;15.432;2023-12-04T02:35:35;-15.90;99.90
11446;DHT22;5779;64.178;15.432;2023-12-04T02:38:23;-16.40;99.90
11446;DHT22;5779;64.178;15.432;2023-12-04T02:41:12;-16.60;99.90
11446;DHT22;5779;64.178;15.432;2023-12-04T02:43:59;-16.60;99.90
11446;DHT22;5779;64.178;15.432;2023-12-04T02:46:45;-16.50;99.90
11446;DHT22;5779;64.178;15.432;2023-12-04T02:49:32;-16.50;99.90
11446;DHT22;5779;64.178;15.432;2023-12-04T02:52:19;-16.40;99.90
11446;DHT22;5779;64.178;15.432;2023-12-04T02:55:06;-16.50;99.90
11446;DHT22;5779;64.178;15.432;2023-12-04T02:57:55;-16.40;99.90
11446;DHT22;5779;64.178;15.432;2023-12-04T03:00:41;-16.40;99.90
11446;DHT22;5779;64.178;15.432;2023-12-04T03:03:28;-16.50;99.90
11446;DHT22;5779;64.178;15.432;2023-12-04T03:06:15;-16.50;99.90
11446;DHT22;5779;64.178;15.432;2023-12-04T03:09:02;-16.60;99.90
11446;DHT22;5779;64.178;15.432;2023-12-04T03:11:49;-16.60;99.90
11446;DHT22;5779;64.178;15.432;2023-12-04T03:14:37;-16.60;99.90
11446;DHT22;5779;64.178;15.432;2023-12-04T03:17:25;-16.60;99.90
11446;DHT22;5779;64.178;15.432;2023-12-04T03:20:11;-16.70;99.90
11446;DHT22;5779;64.178;15.432;2023-12-04T03:22:58;-16.60;99.90
11446;DHT22;5779;64.178;15.432;2023-12-04T03:25:45;-16.70;99.90
11446;DHT22;5779;64.178;15.432;2023-12-04T03:28:32;-16.50;99.90
11446;DHT22;5779;64.178;15.432;2023-12-04T03:31:21;-16.60;99.90
11446;DHT22;5779;64.178;15.432;2023-12-04T03:34:08;-16.80;99.90
11446;DHT22;5779;64.178;15.432;2023-12-04T03:36:55;-17.10;99.90
11446;DHT22;5779;64.178;15.432;2023-12-04T03:39:42;-17.40;99.90
11446;DHT22;5779;64.178;15.432;2023-12-04T03:42:29;-17.40;99.90
11446;DHT22;5779;64.178;15.432;2023-12-04T03:45:15;-17.30;99.90
11446;DHT22;5779;64.178;15.432;2023-12-04T03:48:04;-17.30;99.90
11446;DHT22;5779;64.178;15.432;2023-12-04T03:50:50;-17.30;99.90
11446;DHT22;5779;64.178;15.432;2023-12-04T03:53:37;-17.30;99.90
11446;DHT22;5779;64.178;15.432;2023-12-04T03:56:24;-17.40;99.90
11446;DHT22;5779;64.178;15.432;2023-12-04T03:59:11;-17.40;99.90
11446;DHT22;5779;64.178;15.432;2023-12-04T04:01:58;-17.40;99.90
11446;DHT22;5779;64.178;15.432;2023-12-04T04:04:46;-17.50;99.90
11446;DHT22;5779;64.178;15.432;2023-12-04T04:07:33;-17.60;99.90
11446;DHT22;5779;64.178;15.432;2023-12-04T04:10:20;-17.60;99.90
11446;DHT22;5779;64.178;15.432;2023-12-04T04:13:06;-17.60;99.90
11446;DHT22;5779;64.178;15.432;2023-12-04T04:15:53;-17.50;99.90
11446;DHT22;5779;64.178;15.432;2023-12-04T04:18:40;-17.40;99.90
11446;DHT22;5779;64.178;15.432;2023-12-04T04:21:28;-17.40;99.90
11446;DHT22;5779;64.178;15.432;2023-12-04T04:24:16;-17.40;99.90
11446;DHT22;5779;64.178;15.432;2023-12-04T04:27:03;-17.40;99.90
11446;DHT22;5779;64.178;15.432;2023-12-04T04:29:50;-17.50;99.90
11446;DHT22;5779;64.178;15.432;2023-12-04T04:32:38;-17.60;99.90
11446;DHT22;5779;64.178;15.432;2023-12-04T04:35:24;-17.70;99.90
11446;DHT22;5779;64.178;15.432;2023-12-04T04:38:13;-18.00;99.90
11446;DHT22;5779;64.178;15.432;2023-12-04T04:40:59;-18.10;99.90
11446;DHT22;5779;64.178;15.432;2023-12-04T04:43:47;-18.20;99.90
11446;DHT22;5779;64.178;15.432;2023-12-04T04:46:33;-18.20;99.90
11446;DHT22;5779;64.178;15.432;2023-12-04T04:49:20;-18.10;99.90
11446;DHT22;5779;64.178;15.432;2023-12-04T04:52:07;-18.10;99.90
11446;DHT22;5779;64.178;15.432;2023-12-04T04:54:55;-18.20;99.90
11446;DHT22;5779;64.178;15.432;2023-12-04T04:57:42;-18.00;99.90
11446;DHT22;5779;64.178;15.432;2023-12-04T05:00:28;-18.00;99.90
11446;DHT22;5779;64.178;15.432;2023-12-04T05:03:16;-18.00;99.90
11446;DHT22;5779;64.178;15.432;2023-12-04T05:06:03;-17.90;99.90
11446;DHT22;5779;64.178;15.432;2023-12-04T05:08:50;-18.00;99.90
11446;DHT22;5779;64.178;15.432;2023-12-04T05:11:39;-18.00;99.90
11446;DHT22;5779;64.178;15.432;2023-12-04T05:14:25;-18.00;99.90
11446;DHT22;5779;64.178;15.432;2023-12-04T05:17:12;-17.80;99.90
11446;DHT22;5779;64.178;15.432;2023-12-04T05:19:59;-17.80;99.90
11446;DHT22;5779;64.178;15.432;2023-12-04T05:22:45;-17.70;99.90
11446;DHT22;5779;64.178;15.432;2023-12-04T05:25:32;-18.00;99.90
11446;DHT22;5779;64.178;15.432;2023-12-04T05:28:20;-18.60;99.90
11446;DHT22;5779;64.178;15.432;2023-12-04T05:31:07;-18.50;99.90
11446;DHT22;5779;64.178;15.432;2023-12-04T05:33:54;-18.40;99.90
11446;DHT22;5779;64.178;15.432;2023-12-04T05:36:41;-18.60;99.90
11446;DHT22;5779;64.178;15.432;2023-12-04T05:39:27;-18.60;99.90
11446;DHT22;5779;64.178;15.432;2023-12-04T05:42:14;-18.50;99.90
11446;DHT22;5779;64.178;15.432;2023-12-04T05:45:03;-18.30;99.90
11446;DHT22;5779;64.178;15.432;2023-12-04T05:47:50;-18.10;99.90
11446;DHT22;5779;64.178;15.432;2023-12-04T05:50:37;-17.80;99.90
11446;DHT22;5779;64.178;15.432;2023-12-04T05:53:24;-17.70;99.90
11446;DHT22;5779;64.178;15.432;2023-12-04T05:56:11;-17.90;99.90
11446;DHT22;5779;64.178;15.432;2023-12-04T05:58:58;-17.80;99.90
11446;DHT22;5779;64.178;15.432;2023-12-04T06:01:46;-17.70;99.90
11446;DHT22;5779;64.178;15.432;2023-12-04T06:04:37;-17.60;99.90
11446;DHT22;5779;64.178;15.432;2023-12-04T06:07:23;-17.60;99.90
11446;DHT22;5779;64.178;15.432;2023-12-04T06:10:10;-17.60;99.90
11446;DHT22;5779;64.178;15.432;2023-12-04T06:12:56;-17.70;99.90
11446;DHT22;5779;64.178;15.432;2023-12-04T06:15:43;-17.60;99.90
11446;DHT22;5779;64.178;15.432;2023-12-04T06:18:31;-17.50;99.90
11446;DHT22;5779;64.178;15.432;2023-12-04T06:21:18;-17.50;99.90
11446;DHT22;5779;64.178;15.432;2023-12-04T06:24:05;-17.40;99.90
11446;DHT22;5779;64.178;15.432;2023-12-04T06:26:54;-17.40;99.90
11446;DHT22;5779;64.178;15.432;2023-12-04T06:29:41;-17.30;99.90
11446;DHT22;5779;64.178;15.432;2023-12-04T06:32:28;-17.30;99.90
11446;DHT22;5779;64.178;15.432;2023-12-04T06:35:17;-17.10;99.90
11446;DHT22;5779;64.178;15.432;2023-12-04T06:38:06;-17.10;99.90
11446;DHT22;5779;64.178;15.432;2023-12-04T06:40:53;-17.20;99.90
11446;DHT22;5779;64.178;15.432;2023-12-04T06:43:40;-17.10;99.90
11446;DHT22;5779;64.178;15.432;2023-12-04T06:46:28;-16.90;99.90
11446;DHT22;5779;64.178;15.432;2023-12-04T06:49:18;-16.70;99.90
11446;DHT22;5779;64.178;15.432;2023-12-04T06:52:06;-16.70;99.90
11446;DHT22;5779;64.178;15.432;2023-12-04T06:54:52;-16.70;99.90
11446;DHT22;5779;64.178;15.432;2023-12-04T06:57:39;-16.60;99.90
11446;DHT22;5779;64.178;15.432;2023-12-04T07:00:25;-16.50;99.90
11446;DHT22;5779;64.178;15.432;2023-12-04T07:03:16;-16.40;99.90
11446;DHT22;5779;64.178;15.432;2023-12-04T07:06:03;-16.20;99.90
11446;DHT22;5779;64.178;15.432;2023-12-04T07:08:51;-16.20;99.90
11446;DHT22;5779;64.178;15.432;2023-12-04T07:11:38;-16.10;99.90
11446;DHT22;5779;64.178;15.432;2023-12-04T07:14:24;-16.00;99.90
11446;DHT22;5779;64.178;15.432;2023-12-04T07:17:11;-16.10;99.90
11446;DHT22;5779;64.178;15.432;2023-12-04T07:19:58;-16.10;99.90
11446;DHT22;5779;64.178;15.432;2023-12-04T07:22:45;-16.10;99.90
11446;DHT22;5779;64.178;15.432;2023-12-04T07:25:32;-16.10;99.90
11446;DHT22;5779;64.178;15.432;2023-12-04T07:28:19;-16.00;99.90
11446;DHT22;5779;64.178;15.432;2023-12-04T07:31:06;-15.80;99.90
11446;DHT22;5779;64.178;15.432;2023-12-04T07:33:52;-15.80;99.90
11446;DHT22;5779;64.178;15.432;2023-12-04T07:36:39;-15.60;99.90
11446;DHT22;5779;64.178;15.432;2023-12-04T07:39:26;-15.60;99.90
11446;DHT22;5779;64.178;15.432;2023-12-04T07:42:14;-15.60;99.90
11446;DHT22;5779;64.178;15.432;2023-12-04T07:45:01;-15.70;99.90
11446;DHT22;5779;64.178;15.432;2023-12-04T07:47:48;-15.70;99.90
11446;DHT22;5779;64.178;15.432;2023-12-04T07:50:35;-15.70;99.90
11446;DHT22;5779;64.178;15.432;2023-12-04T07:53:23;-15.70;99.90
11446;DHT22;5779;64.178;15.432;2023-12-04T07:56:11;-15.70;99.90
11446;DHT22;5779;64.178;15.432;2023-12-04T07:58:59;-15.80;99.90
11446;DHT22;5779;64.178;15.432;2023-12-04T08:01:46;-16.00;99.90
11446;DHT22;5779;64.178;15.432;2023-12-04T08:04:32;-16.10;99.90
11446;DHT22;5779;64.178;15.432;2023-12-04T08:07:19;-16.10;99.90
11446;DHT22;5779;64.178;15.432;2023-12-04T08:10:07;-16.00;99.90
11446;DHT22;5779;64.178;15.432;2023-12-04T08:12:54;-16.00;99.90
11446;DHT22;5779;64.178;15.432;2023-12-04T08:15:42;-16.00;99.90
11446;DHT22;5779;64.178;15.432;2023-12-04T08:18:29;-16.10;99.90
11446;DHT22;5779;64.178;15.432;2023-12-04T08:21:16;-16.20;99.90
11446;DHT22;5779;64.178;15.432;2023-12-04T08:24:03;-16.20;99.90
11446;DHT22;5779;64.178;15.432;2023-12-04T08:26:50;-16.30;99.90
11446;DHT22;5779;64.178;15.432;2023-12-04T08:29:38;-16.20;99.90
11446;DHT22;5779;64.178;15.432;2023-12-04T08:32:27;-16.00;99.90
11446;DHT22;5779;64.178;15.432;2023-12-04T08:35:14;-15.90;99.90
11446;DHT22;5779;64.178;15.432;2023-12-04T08:38:00;-15.90;99.90
11446;DHT22;5779;64.178;15.432;2023-12-04T08:40:47;-15.80;99.90
11446;DHT22;5779;64.178;15.432;2023-12-04T08:43:34;-15.80;99.90
11446;DHT22;5779;64.178;15.432;2023-12-04T08:46:21;-15.80;99.90
11446;DHT22;5779;64.178;15.432;2023-12-04T08:49:10;-15.90;99.90
11446;DHT22;5779;64.178;15.432;2023-12-04T08:51:56;-15.80;99.90
11446;DHT22;5779;64.178;15.432;2023-12-04T08:54:42;-15.70;99.90
11446;DHT22;5779;64.178;15.432;2023-12-04T08:57:29;-15.60;99.90
11446;DHT22;5779;64.178;15.432;2023-12-04T09:00:16;-15.50;99.90
11446;DHT22;5779;64.178;15.432;2023-12-04T09:03:06;-15.40;99.90
11446;DHT22;5779;64.178;15.432;2023-12-04T09:05:54;-15.30;99.90
11446;DHT22;5779;64.178;15.432;2023-12-04T09:08:41;-15.20;99.90
11446;DHT22;5779;64.178;15.432;2023-12-04T09:11:28;-15.10;99.90
11446;DHT22;5779;64.178;15.432;2023-12-04T09:14:15;-14.90;99.90
11446;DHT22;5779;64.178;15.432;2023-12-04T09:17:02;-14.80;99.90
11446;DHT22;5779;64.178;15.432;2023-12-04T09:19:49;-14.80;99.90
11446;DHT22;5779;64.178;15.432;2023-12-04T09:22:37;-14.90;99.90
11446;DHT22;5779;64.178;15.432;2023-12-04T09:25:25;-14.90;99.90
11446;DHT22;5779;64.178;15.432;2023-12-04T09:28:12;-14.80;99.90
11446;DHT22;5779;64.178;15.432;2023-12-04T09:30:59;-14.70;99.90
11446;DHT22;5779;64.178;15.432;2023-12-04T09:33:46;-14.70;99.90
11446;DHT22;5779;64.178;15.432;2023-12-04T09:36:33;-14.70;99.90
11446;DHT22;5779;64.178;15.432;2023-12-04T09:39:22;-14.50;99.90
11446;DHT22;5779;64.178;15.432;2023-12-04T09:42:09;-14.50;99.90
11446;DHT22;5779;64.178;15.432;2023-12-04T09:44:56;-14.40;99.90
11446;DHT22;5779;64.178;15.432;2023-12-04T09:47:46;-14.30;99.90
11446;DHT22;5779;64.178;15.432;2023-12-04T09:50:34;-14.30;99.90
11446;DHT22;5779;64.178;15.432;2023-12-04T09:53:21;-14.40;99.90
11446;DHT22;5779;64.178;15.432;2023-12-04T09:56:11;-14.30;99.90
11446;DHT22;5779;64.178;15.432;2023-12-04T09:58:59;-14.40;99.90
11446;DHT22;5779;64.178;15.432;2023-12-04T10:01:46;-14.50;99.90
11446;DHT22;5779;64.178;15.432;2023-12-04T10:04:33;-14.50;99.90
11446;DHT22;5779;64.178;15.432;2023-12-04T10:07:21;-14.70;99.90
11446;DHT22;5779;64.178;15.432;2023-12-04T10:10:08;-14.90;99.90
11446;DHT22;5779;64.178;15.432;2023-12-04T10:12:56;-15.10;99.90
11446;DHT22;5779;64.178;15.432;2023-12-04T10:15:47;-15.20;99.90
11446;DHT22;5779;64.178;15.432;2023-12-04T10:18:34;-15.10;99.90
11446;DHT22;5779;64.178;15.432;2023-12-04T10:21:20;-15.00;99.90
11446;DHT22;5779;64.178;15.432;2023-12-04T10:24:07;-15.00;99.90
11446;DHT22;5779;64.178;15.432;2023-12-04T10:26:54;-15.00;99.90
11446;DHT22;5779;64.178;15.432;2023-12-04T10:29:44;-15.00;99.90
11446;DHT22;5779;64.178;15.432;2023-12-04T10:32:32;-14.90;99.90
11446;DHT22;5779;64.178;15.432;2023-12-04T10:35:22;-14.90;99.90
11446;DHT22;5779;64.178;15.432;2023-12-04T10:38:09;-14.80;99.90
11446;DHT22;5779;64.178;15.432;2023-12-04T10:41:12;-14.90;99.90
11446;DHT22;5779;64.178;15.432;2023-12-04T10:43:59;-14.90;99.90
11446;DHT22;5779;64.178;15.432;2023-12-04T10:46:47;-15.00;99.90
11446;DHT22;5779;64.178;15.432;2023-12-04T10:49:35;-15.00;99.90
11446;DHT22;5779;64.178;15.432;2023-12-04T10:52:22;-15.10;99.90
11446;DHT22;5779;64.178;15.432;2023-12-04T10:55:11;-15.30;99.90
11446;DHT22;5779;64.178;15.432;2023-12-04T10:58:00;-15.40;99.90
11446;DHT22;5779;64.178;15.432;2023-12-04T11:00:49;-15.30;99.90
11446;DHT22;5779;64.178;15.432;2023-12-04T11:03:44;-15.50;99.90
11446;DHT22;5779;64.178;15.432;2023-12-04T11:06:31;-15.50;99.90
11446;DHT22;5779;64.178;15.432;2023-12-04T11:09:21;-15.50;99.90
11446;DHT22;5779;64.178;15.432;2023-12-04T11:12:14;-15.40;99.90
11446;DHT22;5779;64.178;15.432;2023-12-04T11:15:05;-15.30;99.90
11446;DHT22;5779;64.178;15.432;2023-12-04T11:17:59;-15.10;99.90
11446;DHT22;5779;64.178;15.432;2023-12-04T11:20:51;-14.90;99.90
11446;DHT22;5779;64.178;15.432;2023-12-04T11:23:42;-14.90;99.90
11446;DHT22;5779;64.178;15.432;2023-12-04T11:26:30;-15.00;99.90
11446;DHT22;5779;64.178;15.432;2023-12-04T11:29:18;-15.10;99.90
11446;DHT22;5779;64.178;15.432;2023-12-04T11:32:05;-15.20;99.90
11446;DHT22;5779;64.178;15.432;2023-12-04T11:34:55;-15.10;99.90
11446;DHT22;5779;64.178;15.432;2023-12-04T11:37:44;-15.00;99.90
11446;DHT22;5779;64.178;15.432;2023-12-04T11:40:31;-14.90;99.90
11446;DHT22;5779;64.178;15.432;2023-12-04T11:43:23;-14.90;99.90
11446;DHT22;5779;64.178;15.432;2023-12-04T11:46:11;-14.80;99.90
11446;DHT22;5779;64.178;15.432;2023-12-04T11:49:26;-14.80;99.90
11446;DHT22;5779;64.178;15.432;2023-12-04T11:52:13;-14.80;99.90
11446;DHT22;5779;64.178;15.432;2023-12-04T11:55:04;-14.80;99.90
11446;DHT22;5779;64.178;15.432;2023-12-04T11:57:52;-14.80;99.90
11446;DHT22;5779;64.178;15.432;2023-12-04T12:00:43;-14.70;99.90
11446;DHT22;5779;64.178;15.432;2023-12-04T12:03:35;-14.80;99.90
11446;DHT22;5779;64.178;15.432;2023-12-04T12:06:23;-14.80;99.90
11446;DHT22;5779;64.178;15.432;2023-12-04T12:09:10;-14.80;99.90
11446;DHT22;5779;64.178;15.432;2023-12-04T12:11:59;-14.70;99.90
11446;DHT22;5779;64.178;15.432;2023-12-04T12:14:46;-14.70;99.90
11446;DHT22;5779;64.178;15.432;2023-12-04T12:17:33;-14.70;99.90
11446;DHT22;5779;64.178;15.432;2023-12-04T12:20:20;-14.70;99.90
11446;DHT22;5779;64.178;15.432;2023-12-04T12:23:07;-14.70;99.90
11446;DHT22;5779;64.178;15.432;2023-12-04T12:25:54;-14.90;99.90
11446;DHT22;5779;64.178;15.432;2023-12-04T12:28:42;-15.00;99.90
11446;DHT22;5779;64.178;15.432;2023-12-04T12:31:29;-15.20;99.90
11446;DHT22;5779;64.178;15.432;2023-12-04T12:34:15;-15.20;99.90
11446;DHT22;5779;64.178;15.432;2023-12-04T12:37:03;-15.20;99.90
11446;DHT22;5779;64.178;15.432;2023-12-04T12:39:51;-15.30;99.90
11446;DHT22;5779;64.178;15.432;2023-12-04T12:42:38;-15.40;99.90
11446;DHT22;5779;64.178;15.432;2023-12-04T12:45:28;-15.30;99.90
11446;DHT22;5779;64.178;15.432;2023-12-04T12:48:16;-15.30;99.90
11446;DHT22;5779;64.178;15.432;2023-12-04T12:51:03;-15.50;99.90
11446;DHT22;5779;64.178;15.432;2023-12-04T12:53:51;-15.70;99.90
11446;DHT22;5779;64.178;15.432;2023-12-04T12:56:38;-15.70;99.90
11446;DHT22;5779;64.178;15.432;2023-12-04T12:59:24;-15.80;99.90
11446;DHT22;5779;64.178;15.432;2023-12-04T13:02:14;-15.90;99.90
11446;DHT22;5779;64.178;15.432;2023-12-04T13:05:01;-16.30;99.90
11446;DHT22;5779;64.178;15.432;2023-12-04T13:07:49;-16.30;99.90
11446;DHT22;5779;64.178;15.432;2023-12-04T13:10:36;-16.30;99.90
11446;DHT22;5779;64.178;15.432;2023-12-04T13:13:23;-16.30;99.90
11446;DHT22;5779;64.178;15.432;2023-12-04T13:16:10;-16.30;99.90
11446;DHT22;5779;64.178;15.432;2023-12-04T13:18:58;-16.30;99.90
11446;DHT22;5779;64.178;15.432;2023-12-04T13:21:45;-16.30;99.90
11446;DHT22;5779;64.178;15.432;2023-12-04T13:24:32;-16.30;99.90
11446;DHT22;5779;64.178;15.432;2023-12-04T13:27:18;-16.30;99.90
11446;DHT22;5779;64.178;15.432;2023-12-04T13:30:06;-16.40;99.90
11446;DHT22;5779;64.178;15.432;2023-12-04T13:32:53;-16.50;99.90
11446;DHT22;5779;64.178;15.432;2023-12-04T13:35:41;-16.50;99.90
11446;DHT22;5779;64.178;15.432;2023-12-04T13:38:28;-16.60;99.90
11446;DHT22;5779;64.178;15.432;2023-12-04T13:41:14;-16.50;99.90
11446;DHT22;5779;64.178;15.432;2023-12-04T13:44:15;-16.50;99.90
11446;DHT22;5779;64.178;15.432;2023-12-04T13:47:02;-16.60;99.90
11446;DHT22;5779;64.178;15.432;2023-12-04T13:49:49;-16.80;99.90
11446;DHT22;5779;64.178;15.432;2023-12-04T13:52:37;-16.90;99.90
11446;DHT22;5779;64.178;15.432;2023-12-04T13:55:24;-17.00;99.90
11446;DHT22;5779;64.178;15.432;2023-12-04T13:58:29;-17.00;99.90
11446;DHT22;5779;64.178;15.432;2023-12-04T14:01:27;-17.00;99.90
11446;DHT22;5779;64.178;15.432;2023-12-04T14:04:17;-17.00;99.90
11446;DHT22;5779;64.178;15.432;2023-12-04T14:07:04;-17.30;99.90
11446;DHT22;5779;64.178;15.432;2023-12-04T14:09:54;-17.50;99.90
11446;DHT22;5779;64.178;15.432;2023-12-04T14:12:41;-17.40;99.90
11446;DHT22;5779;64.178;15.432;2023-12-04T14:15:28;-17.40;99.90
11446;DHT22;5779;64.178;15.432;2023-12-04T14:18:15;-17.30;99.90
11446;DHT22;5779;64.178;15.432;2023-12-04T14:21:02;-17.30;99.90
11446;DHT22;5779;64.178;15.432;2023-12-04T14:23:49;-17.40;99.90
11446;DHT22;5779;64.178;15.432;2023-12-04T14:26:37;-17.40;99.90
11446;DHT22;5779;64.178;15.432;2023-12-04T14:29:24;-17.40;99.90
11446;DHT22;5779;64.178;15.432;2023-12-04T14:32:11;-17.50;99.90
11446;DHT22;5779;64.178;15.432;2023-12-04T14:34:58;-17.50;99.90
11446;DHT22;5779;64.178;15.432;2023-12-04T14:37:45;-17.50;99.90
11446;DHT22;5779;64.178;15.432;2023-12-04T14:40:31;-17.50;99.90
11446;DHT22;5779;64.178;15.432;2023-12-04T14:43:20;-17.60;99.90
11446;DHT22;5779;64.178;15.432;2023-12-04T14:46:07;-17.60;99.90
11446;DHT22;5779;64.178;15.432;2023-12-04T14:48:54;-17.70;99.90
11446;DHT22;5779;64.178;15.432;2023-12-04T14:51:41;-17.80;99.90
11446;DHT22;5779;64.178;15.432;2023-12-04T14:54:32;-17.90;99.90
11446;DHT22;5779;64.178;15.432;2023-12-04T14:57:37;-18.10;99.90
11446;DHT22;5779;64.178;15.432;2023-12-04T15:00:41;-18.20;99.90
11446;DHT22;5779;64.178;15.432;2023-12-04T15:03:51;-18.30;99.90
11446;DHT22;5779;64.178;15.432;2023-12-04T15:07:15;-18.30;99.90
11446;DHT22;5779;64.178;15.432;2023-12-04T15:10:28;-18.30;99.90
11446;DHT22;5779;64.178;15.432;2023-12-04T15:13:37;-18.40;99.90
11446;DHT22;5779;64.178;15.432;2023-12-04T15:16:33;-18.30;99.90
11446;DHT22;5779;64.178;15.432;2023-12-04T15:19:20;-18.30;99.90
11446;DHT22;5779;64.178;15.432;2023-12-04T15:22:20;-18.20;99.90
11446;DHT22;5779;64.178;15.432;2023-12-04T15:25:07;-18.30;99.90
11446;DHT22;5779;64.178;15.432;2023-12-04T15:27:56;-18.40;99.90
11446;DHT22;5779;64.178;15.432;2023-12-04T15:30:43;-18.50;99.90
11446;DHT22;5779;64.178;15.432;2023-12-04T15:33:31;-18.50;99.90
11446;DHT22;5779;64.178;15.432;2023-12-04T15:36:18;-18.70;99.90
11446;DHT22;5779;64.178;15.432;2023-12-04T15:39:06;-18.70;99.90
11446;DHT22;5779;64.178;15.432;2023-12-04T15:41:54;-18.80;99.90
11446;DHT22;5779;64.178;15.432;2023-12-04T15:44:39;-18.80;99.90
11446;DHT22;5779;64.178;15.432;2023-12-04T15:47:26;-18.90;99.90
11446;DHT22;5779;64.178;15.432;2023-12-04T15:50:14;-18.90;99.90
11446;DHT22;5779;64.178;15.432;2023-12-04T15:53:01;-18.90;99.90
11446;DHT22;5779;64.178;15.432;2023-12-04T15:55:48;-18.90;99.90
11446;DHT22;5779;64.178;15.432;2023-12-04T15:58:33;-19.10;99.90
11446;DHT22;5779;64.178;15.432;2023-12-04T16:01:20;-19.20;99.90
11446;DHT22;5779;64.178;15.432;2023-12-04T16:04:11;-19.10;99.90
11446;DHT22;5779;64.178;15.432;2023-12-04T16:07:00;-19.20;99.90
11446;DHT22;5779;64.178;15.432;2023-12-04T16:09:47;-19.30;99.90
11446;DHT22;5779;64.178;15.432;2023-12-04T16:12:34;-19.50;99.90
11446;DHT22;5779;64.178;15.432;2023-12-04T16:15:20;-19.40;99.90
11446;DHT22;5779;64.178;15.432;2023-12-04T16:18:07;-19.50;99.90
11446;DHT22;5779;64.178;15.432;2023-12-04T16:20:54;-19.50;99.90
11446;DHT22;5779;64.178;15.432;2023-12-04T16:23:42;-19.60;99.90
11446;DHT22;5779;64.178;15.432;2023-12-04T16:26:28;-19.50;99.90
11446;DHT22;5779;64.178;15.432;2023-12-04T16:29:16;-19.40;99.90
11446;DHT22;5779;64.178;15.432;2023-12-04T16:32:03;-19.40;99.90
11446;DHT22;5779;64.178;15.432;2023-12-04T16:34:50;-19.30;99.90
11446;DHT22;5779;64.178;15.432;2023-12-04T16:37:37;-19.20;99.90
11446;DHT22;5779;64.178;15.432;2023-12-04T16:40:27;-19.20;99.90
11446;DHT22;5779;64.178;15.432;2023-12-04T16:43:13;-19.10;99.90
11446;DHT22;5779;64.178;15.432;2023-12-04T16:46:00;-19.10;99.90
11446;DHT22;5779;64.178;15.432;2023-12-04T16:48:47;-19.20;99.90
11446;DHT22;5779;64.178;15.432;2023-12-04T16:51:35;-19.30;99.90
11446;DHT22;5779;64.178;15.432;2023-12-04T16:54:21;-19.30;99.90
11446;DHT22;5779;64.178;15.432;2023-12-04T16:57:10;-19.30;99.90
11446;DHT22;5779;64.178;15.432;2023-12-04T16:59:57;-19.30;99.90
11446;DHT22;5779;64.178;15.432;2023-12-04T17:02:43;-19.30;99.90
11446;DHT22;5779;64.178;15.432;2023-12-04T17:05:30;-19.30;99.90
11446;DHT22;5779;64.178;15.432;2023-12-04T17:08:16;-19.40;99.90
11446;DHT22;5779;64.178;15.432;2023-12-04T17:11:05;-19.60;99.90
11446;DHT22;5779;64.178;15.432;2023-12-04T17:13:54;-19.60;99.90
11446;DHT22;5779;64.178;15.432;2023-12-04T17:16:40;-19.80;99.90
11446;DHT22;5779;64.178;15.432;2023-12-04T17:19:27;-19.80;99.90
11446;DHT22;5779;64.178;15.432;2023-12-04T17:22:16;-19.80;99.90
11446;DHT22;5779;64.178;15.432;2023-12-04T17:25:03;-19.80;99.90